createdAt,value
2023-05-02T00:01:50.106Z,11.76
2023-05-02T00:04:17.424Z,11.71
2023-05-02T00:06:46.594Z,11.74
2023-05-02T00:09:14.372Z,11.74
2023-05-02T00:11:41.423Z,11.79
2023-05-02T00:14:08.453Z,11.83
2023-05-02T00:16:35.837Z,11.85
2023-05-02T00:19:03.453Z,11.84
2023-05-02T00:21:31.296Z,11.84
2023-05-02T00:23:58.822Z,11.84
2023-05-02T00:26:27.529Z,11.82
2023-05-02T00:28:54.745Z,11.84
2023-05-02T00:31:21.922Z,11.84
2023-05-02T00:33:49.117Z,11.82
2023-05-02T00:36:17.873Z,11.81
2023-05-02T00:38:45.564Z,11.75
2023-05-02T00:41:12.812Z,11.70
2023-05-02T00:43:39.868Z,11.67
2023-05-02T00:46:07.861Z,11.52
2023-05-02T00:48:35.858Z,11.44
2023-05-02T00:51:05.217Z,11.41
2023-05-02T00:53:32.694Z,11.37
2023-05-02T00:56:00.006Z,11.31
2023-05-02T00:58:28.101Z,11.31
2023-05-02T01:01:23.461Z,11.34
2023-05-02T01:03:59.769Z,11.36
2023-05-02T01:06:42.418Z,11.34
2023-05-02T01:09:17.552Z,11.23
2023-05-02T01:11:58.787Z,11.14
2023-05-02T01:14:30.118Z,11.15
2023-05-02T01:16:58.938Z,11.17
2023-05-02T01:19:29.624Z,11.11
2023-05-02T01:21:57.075Z,11.12
2023-05-02T01:24:32.966Z,11.16
2023-05-02T01:27:25.107Z,11.14
2023-05-02T01:29:53.022Z,11.15
2023-05-02T01:32:22.725Z,11.14
2023-05-02T01:34:50.683Z,11.12
2023-05-02T01:37:18.465Z,11.09
2023-05-02T01:39:46.997Z,11.04
2023-05-02T01:42:15.049Z,10.94
2023-05-02T01:44:43.124Z,10.86
2023-05-02T01:47:10.723Z,10.86
2023-05-02T01:49:47.597Z,10.91
2023-05-02T01:52:15.664Z,10.91
2023-05-02T01:54:42.931Z,10.85
2023-05-02T01:57:11.787Z,10.86
2023-05-02T01:59:40.792Z,10.89
2023-05-02T02:02:08.788Z,10.79
2023-05-02T02:04:38.069Z,10.75
2023-05-02T02:07:08.234Z,10.73
2023-05-02T02:09:35.944Z,10.71
2023-05-02T02:12:13.235Z,10.71
2023-05-02T02:14:43.416Z,10.61
2023-05-02T02:17:24.158Z,10.62
2023-05-02T02:19:53.966Z,10.57
2023-05-02T02:22:21.802Z,10.52
2023-05-02T02:24:50.947Z,10.50
2023-05-02T02:27:19.406Z,10.49
2023-05-02T02:29:46.459Z,10.45
2023-05-02T02:32:13.728Z,10.36
2023-05-02T02:34:40.921Z,10.38
2023-05-02T02:37:32.076Z,10.35
2023-05-02T02:40:05.882Z,10.30
2023-05-02T02:42:44.534Z,10.37
2023-05-02T02:45:36.748Z,10.38
2023-05-02T02:48:37.814Z,10.42
2023-05-02T02:51:16.191Z,10.49
2023-05-02T02:53:56.989Z,10.48
2023-05-02T02:56:30.416Z,10.41
2023-05-02T02:59:00.892Z,10.37
2023-05-02T03:01:31.743Z,10.33
2023-05-02T03:03:59.167Z,10.31
2023-05-02T03:06:27.377Z,10.38
2023-05-02T03:08:54.541Z,10.40
2023-05-02T03:11:21.613Z,10.35
2023-05-02T03:13:49.214Z,10.35
2023-05-02T03:16:25.814Z,10.31
2023-05-02T03:18:52.927Z,10.28
2023-05-02T03:21:20.004Z,10.32
2023-05-02T03:23:47.108Z,10.31
2023-05-02T03:26:14.698Z,10.36
2023-05-02T03:28:41.980Z,10.33
2023-05-02T03:31:09.095Z,10.36
2023-05-02T03:33:36.180Z,10.30
2023-05-02T03:36:03.396Z,10.25
2023-05-02T03:38:30.743Z,10.24
2023-05-02T03:40:58.401Z,10.20
2023-05-02T03:43:25.654Z,10.16
2023-05-02T03:45:52.704Z,10.16
2023-05-02T03:48:19.893Z,10.17
2023-05-02T03:50:47.419Z,10.08
2023-05-02T03:53:16.139Z,10.01
2023-05-02T03:55:43.410Z,9.96
2023-05-02T03:58:10.764Z,10.01
2023-05-02T04:00:40.512Z,10.02
2023-05-02T04:03:08.123Z,10.05
2023-05-02T04:05:35.184Z,10.11
2023-05-02T04:08:02.958Z,10.17
2023-05-02T04:10:30.131Z,10.18
2023-05-02T04:12:57.189Z,10.16
2023-05-02T04:15:24.267Z,10.15
2023-05-02T04:17:51.408Z,10.13
2023-05-02T04:20:18.512Z,10.11
2023-05-02T04:22:47.841Z,10.07
2023-05-02T04:25:15.089Z,10.05
2023-05-02T04:27:42.357Z,10.07
2023-05-02T04:30:12.790Z,10.05
2023-05-02T04:32:40.089Z,10.09
2023-05-02T04:35:07.379Z,10.11
2023-05-02T04:37:34.449Z,10.11
2023-05-02T04:40:01.711Z,10.10
2023-05-02T04:42:28.910Z,10.14
2023-05-02T04:44:55.966Z,10.16
2023-05-02T04:47:23.252Z,10.16
2023-05-02T04:49:50.401Z,10.20
2023-05-02T04:52:18.556Z,10.21
2023-05-02T04:54:45.855Z,10.22
2023-05-02T04:57:12.903Z,10.21
2023-05-02T04:59:40.033Z,10.24
2023-05-02T05:02:18.921Z,10.24
2023-05-02T05:04:46.363Z,10.25
2023-05-02T05:07:13.447Z,10.25
2023-05-02T05:09:40.606Z,10.27
2023-05-02T05:12:07.695Z,10.25
2023-05-02T05:14:34.884Z,10.32
2023-05-02T05:17:02.134Z,10.36
2023-05-02T05:19:29.185Z,10.36
2023-05-02T05:21:56.262Z,10.36
2023-05-02T05:24:23.660Z,10.38
2023-05-02T05:26:50.719Z,10.38
2023-05-02T05:29:19.020Z,10.34
2023-05-02T05:31:46.270Z,10.36
2023-05-02T05:34:14.133Z,10.37
2023-05-02T05:36:41.696Z,10.39
2023-05-02T05:39:08.873Z,10.39
2023-05-02T05:41:36.074Z,10.44
2023-05-02T05:44:03.173Z,10.42
2023-05-02T05:46:30.892Z,10.50
2023-05-02T05:48:58.056Z,10.57
2023-05-02T05:51:25.087Z,10.60
2023-05-02T05:53:52.165Z,10.68
2023-05-02T05:56:19.435Z,10.73
2023-05-02T05:58:46.513Z,10.78
2023-05-02T06:01:13.667Z,10.80
2023-05-02T06:03:41.132Z,10.83
2023-05-02T06:06:08.408Z,10.88
2023-05-02T06:08:35.596Z,10.90
2023-05-02T06:11:02.725Z,10.92
2023-05-02T06:13:29.866Z,10.99
2023-05-02T06:16:01.368Z,11.07
2023-05-02T06:18:29.032Z,11.12
2023-05-02T06:20:56.212Z,11.19
2023-05-02T06:23:23.524Z,11.25
2023-05-02T06:25:50.692Z,11.32
2023-05-02T06:28:17.737Z,11.35
2023-05-02T06:30:44.823Z,11.43
2023-05-02T06:33:12.602Z,11.43
2023-05-02T06:35:39.799Z,11.42
2023-05-02T06:38:07.287Z,11.49
2023-05-02T06:40:36.387Z,11.55
2023-05-02T06:43:03.502Z,11.58
2023-05-02T06:45:30.674Z,11.62
2023-05-02T06:47:57.730Z,11.66
2023-05-02T06:50:24.842Z,11.70
2023-05-02T06:52:52.043Z,11.72
2023-05-02T06:55:19.285Z,11.78
2023-05-02T06:57:46.369Z,11.80
2023-05-02T07:00:14.277Z,11.79
2023-05-02T07:02:41.481Z,11.79
2023-05-02T07:05:09.012Z,11.79
2023-05-02T07:07:36.285Z,11.80
2023-05-02T07:10:04.280Z,11.75
2023-05-02T07:12:31.422Z,11.69
2023-05-02T07:14:58.693Z,11.64
2023-05-02T07:17:25.890Z,11.62
2023-05-02T07:19:53.141Z,11.60
2023-05-02T07:22:21.278Z,11.59
2023-05-02T07:24:48.389Z,11.60
2023-05-02T07:27:15.439Z,11.55
2023-05-02T07:29:42.785Z,11.53
2023-05-02T07:32:09.941Z,11.50
2023-05-02T07:34:37.087Z,11.50
2023-05-02T07:37:04.222Z,11.50
2023-05-02T07:39:32.942Z,11.48
2023-05-02T07:42:00.037Z,11.45
2023-05-02T07:44:27.085Z,11.47
2023-05-02T07:46:54.132Z,11.47
2023-05-02T07:49:21.267Z,11.45
2023-05-02T07:51:48.359Z,11.44
2023-05-02T07:54:19.324Z,11.47
2023-05-02T07:56:47.211Z,11.47
2023-05-02T07:59:14.556Z,11.48
2023-05-02T08:01:42.107Z,11.57
2023-05-02T08:04:13.080Z,11.59
2023-05-02T08:06:41.000Z,11.61
2023-05-02T08:09:09.300Z,11.65
2023-05-02T08:11:36.349Z,11.72
2023-05-02T08:14:03.616Z,11.65
2023-05-02T08:16:30.841Z,11.56
2023-05-02T08:18:57.947Z,11.64
2023-05-02T08:21:25.230Z,11.75
2023-05-02T08:23:52.488Z,11.83
2023-05-02T08:26:21.881Z,11.93
2023-05-02T08:28:49.091Z,11.99
2023-05-02T08:31:16.475Z,12.03
2023-05-02T08:33:43.903Z,11.95
2023-05-02T08:36:15.064Z,11.91
2023-05-02T08:38:46.091Z,11.86
2023-05-02T08:41:18.099Z,11.91
2023-05-02T08:43:48.542Z,11.95
2023-05-02T08:46:17.201Z,11.91
2023-05-02T08:48:48.293Z,11.94
2023-05-02T08:51:16.807Z,11.96
2023-05-02T08:53:44.271Z,11.97
2023-05-02T08:56:12.621Z,11.89
2023-05-02T08:58:40.540Z,11.90
2023-05-02T09:01:15.012Z,11.96
2023-05-02T09:03:44.704Z,11.99
2023-05-02T09:06:15.388Z,12.09
2023-05-02T09:08:44.154Z,12.16
2023-05-02T09:11:12.561Z,12.24
2023-05-02T09:13:51.050Z,12.25
2023-05-02T09:16:23.499Z,12.30
2023-05-02T09:18:52.627Z,12.35
2023-05-02T09:21:21.776Z,12.40
2023-05-02T09:23:51.048Z,12.44
2023-05-02T09:26:23.088Z,12.45
2023-05-02T09:28:56.913Z,12.45
2023-05-02T09:34:15.243Z,12.39
2023-05-02T09:36:46.178Z,12.33
2023-05-02T09:39:18.551Z,12.35
2023-05-02T09:41:47.076Z,12.35
2023-05-02T09:44:15.686Z,12.33
2023-05-02T09:46:48.122Z,12.30
2023-05-02T09:49:18.869Z,12.27
2023-05-02T09:51:47.692Z,12.30
2023-05-02T09:54:33.602Z,12.36
2023-05-02T09:57:01.932Z,12.31
2023-05-02T09:59:28.992Z,12.33
2023-05-02T10:02:01.395Z,12.34
2023-05-02T10:04:29.348Z,12.38
2023-05-02T10:06:57.501Z,12.44
2023-05-02T10:09:25.671Z,12.53
2023-05-02T10:11:54.393Z,12.61
2023-05-02T10:14:22.940Z,12.63
2023-05-02T10:17:01.724Z,12.65
2023-05-02T10:19:42.451Z,12.71
2023-05-02T10:22:10.870Z,12.78
2023-05-02T10:24:38.662Z,12.88
2023-05-02T10:27:05.764Z,12.99
2023-05-02T10:29:34.172Z,13.01
2023-05-02T10:32:04.581Z,13.05
2023-05-02T10:34:32.615Z,13.08
2023-05-02T10:37:02.344Z,13.14
2023-05-02T10:39:29.792Z,13.19
2023-05-02T10:41:58.589Z,13.22
2023-05-02T10:44:36.424Z,13.30
2023-05-02T10:47:26.892Z,13.35
2023-05-02T10:50:00.372Z,13.43
2023-05-02T10:52:33.212Z,13.51
2023-05-02T10:55:20.485Z,13.52
2023-05-02T10:58:06.179Z,13.71
2023-05-02T11:00:34.707Z,13.84
2023-05-02T11:03:02.877Z,13.91
2023-05-02T11:05:30.396Z,13.97
2023-05-02T11:08:15.816Z,14.01
2023-05-02T11:10:43.345Z,14.05
2023-05-02T11:13:10.478Z,14.07
2023-05-02T11:15:40.888Z,14.09
2023-05-02T11:18:09.650Z,14.02
2023-05-02T11:20:40.083Z,14.03
2023-05-02T11:23:16.709Z,14.10
2023-05-02T11:25:51.730Z,14.13
2023-05-02T11:28:37.033Z,14.20
2023-05-02T11:31:05.709Z,14.21
2023-05-02T11:33:32.834Z,14.26
2023-05-02T11:36:00.185Z,14.30
2023-05-02T11:38:36.092Z,14.35
2023-05-02T11:41:04.354Z,14.42
2023-05-02T11:43:32.416Z,14.38
2023-05-02T11:46:01.969Z,14.52
2023-05-02T11:48:30.780Z,14.51
2023-05-02T11:51:03.469Z,14.46
2023-05-02T11:53:31.694Z,14.52
2023-05-02T11:56:04.279Z,14.55
2023-05-02T11:58:33.435Z,14.56
2023-05-02T12:01:14.183Z,14.44
2023-05-02T12:03:41.627Z,14.50
2023-05-02T12:06:18.715Z,14.61
2023-05-02T12:08:46.605Z,14.73
2023-05-02T12:11:15.733Z,14.81
2023-05-02T12:13:47.796Z,14.85
2023-05-02T12:16:15.690Z,14.90
2023-05-02T12:18:42.903Z,14.86
2023-05-02T12:21:10.394Z,14.86
2023-05-02T12:23:37.946Z,14.82
2023-05-02T12:26:18.947Z,14.74
2023-05-02T12:28:50.839Z,14.69
2023-05-02T12:31:18.918Z,14.66
2023-05-02T12:33:48.168Z,14.64
2023-05-02T12:36:15.399Z,14.62
2023-05-02T12:38:49.322Z,14.54
2023-05-02T12:41:16.664Z,14.48
2023-05-02T12:43:47.977Z,14.46
2023-05-02T12:46:15.068Z,14.48
2023-05-02T12:48:42.335Z,14.59
2023-05-02T12:51:22.211Z,14.76
2023-05-02T12:53:49.295Z,14.89
2023-05-02T12:56:17.028Z,14.92
2023-05-02T12:58:47.969Z,15.07
2023-05-02T13:01:15.769Z,15.22
2023-05-02T13:03:45.325Z,15.31
2023-05-02T13:06:12.683Z,15.37
2023-05-02T13:08:40.118Z,15.34
2023-05-02T13:11:07.286Z,15.40
2023-05-02T13:13:35.417Z,15.43
2023-05-02T13:16:02.672Z,15.41
2023-05-02T13:18:29.830Z,15.39
2023-05-02T13:20:57.010Z,15.42
2023-05-02T13:23:24.459Z,15.37
2023-05-02T13:25:51.511Z,15.39
2023-05-02T13:28:19.125Z,15.40
2023-05-02T13:30:46.252Z,15.36
2023-05-02T13:33:13.362Z,15.32
2023-05-02T13:35:40.494Z,15.31
2023-05-02T13:38:07.574Z,15.28
2023-05-02T13:40:34.813Z,15.22
2023-05-02T13:43:02.511Z,15.28
2023-05-02T13:45:29.599Z,15.33
2023-05-02T13:47:56.808Z,15.30
2023-05-02T13:50:24.200Z,15.23
2023-05-02T13:52:51.259Z,15.11
2023-05-02T13:55:18.409Z,15.10
2023-05-02T13:57:45.603Z,15.13
2023-05-02T14:00:13.158Z,14.99
2023-05-02T14:02:40.381Z,14.89
2023-05-02T14:05:08.250Z,14.77
2023-05-02T14:07:35.563Z,14.63
2023-05-02T14:10:02.880Z,14.53
2023-05-02T14:12:30.624Z,14.34
2023-05-02T14:14:57.732Z,14.27
2023-05-02T14:17:25.402Z,14.18
2023-05-02T14:19:52.714Z,14.12
2023-05-02T14:22:19.767Z,14.06
2023-05-02T14:24:47.001Z,13.87
2023-05-02T14:27:18.245Z,13.84
2023-05-02T14:29:46.199Z,13.70
2023-05-02T14:32:13.654Z,13.56
2023-05-02T14:34:43.572Z,13.49
2023-05-02T14:37:11.045Z,13.36
2023-05-02T14:39:39.029Z,13.41
2023-05-02T14:42:06.128Z,13.26
2023-05-02T14:44:33.195Z,13.19
2023-05-02T14:47:00.594Z,13.11
2023-05-02T14:49:27.885Z,13.09
2023-05-02T14:51:56.428Z,13.02
2023-05-02T14:54:30.532Z,12.97
2023-05-02T14:56:59.475Z,12.98
2023-05-02T14:59:30.653Z,13.00
2023-05-02T15:01:57.946Z,12.97
2023-05-02T15:04:27.291Z,12.95
2023-05-02T15:06:55.534Z,12.95
2023-05-02T15:09:23.343Z,12.88
2023-05-02T15:11:50.460Z,12.73
2023-05-02T15:14:17.511Z,12.72
2023-05-02T15:16:45.253Z,12.70
2023-05-02T15:19:12.494Z,12.62
2023-05-02T15:21:39.785Z,12.60
2023-05-02T15:24:07.253Z,12.60
2023-05-02T15:26:34.524Z,12.55
2023-05-02T15:29:01.810Z,12.54
2023-05-02T15:31:29.441Z,12.55
2023-05-02T15:33:56.514Z,12.51
2023-05-02T15:36:26.830Z,12.39
2023-05-02T15:38:53.892Z,12.27
2023-05-02T15:41:21.060Z,12.17
2023-05-02T15:43:48.140Z,12.12
2023-05-02T15:46:16.399Z,12.18
2023-05-02T15:48:43.571Z,12.21
2023-05-02T15:51:10.863Z,12.13
2023-05-02T15:53:42.295Z,12.06
2023-05-02T15:56:09.928Z,12.04
2023-05-02T15:58:37.301Z,12.04
2023-05-02T16:01:04.659Z,12.09
2023-05-02T16:03:32.238Z,12.02
2023-05-02T16:06:00.247Z,12.01
2023-05-02T16:08:27.934Z,11.92
2023-05-02T16:10:55.977Z,11.94
2023-05-02T16:13:23.093Z,11.89
2023-05-02T16:15:52.414Z,11.87
2023-05-02T16:18:19.572Z,11.77
2023-05-02T16:20:47.762Z,11.73
2023-05-02T16:23:15.087Z,11.65
2023-05-02T16:25:42.150Z,11.61
2023-05-02T16:28:09.257Z,11.59
2023-05-02T16:30:37.305Z,11.62
2023-05-02T16:33:04.537Z,11.68
2023-05-02T16:35:31.933Z,11.76
2023-05-02T16:37:59.224Z,11.81
2023-05-02T16:40:28.216Z,11.74
2023-05-02T16:42:55.742Z,11.69
2023-05-02T16:45:23.230Z,11.70
2023-05-02T16:47:50.493Z,11.67
2023-05-02T16:50:17.561Z,11.70
2023-05-02T16:52:44.848Z,11.72
2023-05-02T16:55:12.221Z,11.72
2023-05-02T16:57:39.312Z,11.71
2023-05-02T17:00:13.342Z,11.71
2023-05-02T17:02:40.799Z,11.76
2023-05-02T17:05:09.543Z,11.72
2023-05-02T17:07:39.470Z,11.72
2023-05-02T17:10:09.855Z,11.68
2023-05-02T17:12:37.451Z,11.69
2023-05-02T17:15:08.179Z,11.65
2023-05-02T17:17:35.558Z,11.50
2023-05-02T17:20:03.546Z,11.45
2023-05-02T17:22:31.621Z,11.46
2023-05-02T17:24:58.906Z,11.45
2023-05-02T17:27:26.014Z,11.34
2023-05-02T17:29:53.282Z,11.34
2023-05-02T17:32:21.642Z,11.34
2023-05-02T17:34:49.437Z,11.32
2023-05-02T17:37:16.714Z,11.32
2023-05-02T17:39:44.116Z,11.31
2023-05-02T17:42:11.729Z,11.25
2023-05-02T17:44:40.176Z,11.23
2023-05-02T17:47:08.546Z,11.26
2023-05-02T17:49:37.942Z,11.27
2023-05-02T17:52:05.465Z,11.25
2023-05-02T17:54:34.853Z,11.24
2023-05-02T17:57:02.172Z,11.22
2023-05-02T17:59:29.744Z,11.23
2023-05-02T18:01:57.326Z,11.23
2023-05-02T18:04:24.675Z,11.23
2023-05-02T18:06:51.985Z,11.23
2023-05-02T18:09:19.250Z,11.17
2023-05-02T18:11:49.550Z,11.18
2023-05-02T18:14:17.441Z,11.15
2023-05-02T18:16:48.455Z,11.17
2023-05-02T18:19:16.142Z,11.13
2023-05-02T18:21:46.541Z,11.07
2023-05-02T18:24:13.804Z,11.06
2023-05-02T18:26:41.223Z,11.02
2023-05-02T18:29:09.537Z,10.93
2023-05-02T18:31:41.844Z,10.96
2023-05-02T18:34:12.462Z,10.96
2023-05-02T18:36:39.501Z,10.93
2023-05-02T18:39:06.848Z,10.91
2023-05-02T18:41:34.309Z,10.85
2023-05-02T18:44:01.394Z,10.82
2023-05-02T18:46:31.089Z,10.80
2023-05-02T18:48:58.228Z,10.79
2023-05-02T18:51:25.281Z,10.77
2023-05-02T18:53:52.784Z,10.75
2023-05-02T18:56:20.333Z,10.72
2023-05-02T18:58:49.178Z,10.72
2023-05-02T19:01:19.641Z,10.75
2023-05-02T19:03:50.160Z,10.73
2023-05-02T19:06:18.666Z,10.66
2023-05-02T19:08:49.114Z,10.65
2023-05-02T19:11:16.360Z,10.69
2023-05-02T19:13:43.972Z,10.69
2023-05-02T19:16:15.727Z,10.72
2023-05-02T19:18:43.827Z,10.67
2023-05-02T19:21:15.622Z,10.57
2023-05-02T19:23:44.713Z,10.52
2023-05-02T19:26:19.329Z,10.49
2023-05-02T19:28:49.388Z,10.47
2023-05-02T19:31:18.795Z,10.41
2023-05-02T19:33:53.036Z,10.41
2023-05-02T19:36:22.052Z,10.39
2023-05-02T19:38:52.332Z,10.39
2023-05-02T19:41:20.391Z,10.39
2023-05-02T19:43:47.710Z,10.37
2023-05-02T19:46:15.209Z,10.33
2023-05-02T19:48:42.454Z,10.27
2023-05-02T19:51:09.679Z,10.23
2023-05-02T19:53:37.821Z,10.23
2023-05-02T19:56:06.786Z,10.19
2023-05-02T19:58:33.926Z,10.11
2023-05-02T20:01:01.042Z,10.13
2023-05-02T20:03:28.566Z,10.10
2023-05-02T20:05:57.452Z,10.14
2023-05-02T20:08:27.598Z,10.17
2023-05-02T20:10:55.569Z,10.23
2023-05-02T20:13:22.693Z,10.18
2023-05-02T20:15:51.013Z,10.11
2023-05-02T20:18:18.161Z,10.03
2023-05-02T20:20:45.848Z,9.98
2023-05-02T20:23:13.465Z,9.99
2023-05-02T20:25:42.331Z,10.04
2023-05-02T20:28:10.336Z,10.06
2023-05-02T20:30:39.101Z,10.08
2023-05-02T20:33:14.889Z,10.09
2023-05-02T20:35:42.607Z,10.04
2023-05-02T20:38:09.844Z,10.02
2023-05-02T20:40:40.659Z,10.09
2023-05-02T20:43:08.802Z,10.09
2023-05-02T20:45:35.874Z,10.09
2023-05-02T20:48:02.990Z,10.10
2023-05-02T20:50:30.489Z,10.11
2023-05-02T20:52:57.705Z,10.10
2023-05-02T20:55:24.875Z,10.10
2023-05-02T20:57:53.173Z,10.13
2023-05-02T21:00:22.470Z,10.11
2023-05-02T21:02:49.905Z,10.10
2023-05-02T21:05:17.092Z,10.09
2023-05-02T21:07:44.785Z,10.07
2023-05-02T21:10:11.984Z,10.07
2023-05-02T21:12:39.525Z,10.07
2023-05-02T21:15:07.527Z,10.07
2023-05-02T21:17:34.717Z,10.07
2023-05-02T21:20:02.211Z,10.05
2023-05-02T21:22:29.571Z,10.03
2023-05-02T21:24:56.669Z,9.99
2023-05-02T21:27:23.960Z,9.99
2023-05-02T21:29:51.226Z,9.99
2023-05-02T21:32:18.369Z,9.99
2023-05-02T21:34:45.691Z,9.97
2023-05-02T21:37:12.809Z,9.99
2023-05-02T21:39:39.956Z,9.99
2023-05-02T21:42:07.034Z,10.00
2023-05-02T21:44:34.078Z,9.98
2023-05-02T21:47:01.193Z,9.96
2023-05-02T21:49:31.316Z,9.94
2023-05-02T21:51:58.781Z,9.94
2023-05-02T21:54:25.937Z,9.93
2023-05-02T21:56:53.924Z,9.90
2023-05-02T21:59:21.116Z,9.87
2023-05-02T22:01:48.179Z,9.75
2023-05-02T22:04:15.250Z,9.76
2023-05-02T22:06:42.877Z,9.68
2023-05-02T22:09:10.418Z,9.69
2023-05-02T22:11:37.839Z,9.63
2023-05-02T22:14:05.052Z,9.53
2023-05-02T22:16:32.145Z,9.49
2023-05-02T22:18:59.288Z,9.46
2023-05-02T22:21:27.122Z,9.41
2023-05-02T22:23:54.188Z,9.35
2023-05-02T22:26:22.570Z,9.39
2023-05-02T22:28:49.829Z,9.38
2023-05-02T22:31:17.025Z,9.43
2023-05-02T22:33:46.125Z,9.44
2023-05-02T22:36:13.153Z,9.42
2023-05-02T22:38:40.264Z,9.41
2023-05-02T22:41:07.769Z,9.39
2023-05-02T22:43:34.894Z,9.34
2023-05-02T22:46:02.479Z,9.22
2023-05-02T22:48:29.779Z,9.13
2023-05-02T22:50:56.862Z,9.19
2023-05-02T22:53:25.037Z,9.16
2023-05-02T22:55:52.236Z,9.16
2023-05-02T22:58:19.278Z,9.10
2023-05-02T23:00:46.642Z,9.12
2023-05-02T23:03:13.815Z,9.11
2023-05-02T23:05:40.994Z,9.10
2023-05-02T23:08:08.041Z,9.09
2023-05-02T23:10:35.133Z,9.10
2023-05-02T23:13:02.715Z,9.05
2023-05-02T23:15:29.798Z,9.01
2023-05-02T23:17:56.914Z,9.04
2023-05-02T23:20:24.046Z,8.99
2023-05-02T23:22:51.308Z,8.93
2023-05-02T23:25:18.670Z,8.94
2023-05-02T23:27:45.787Z,8.95
2023-05-02T23:30:12.996Z,8.96
2023-05-02T23:32:40.184Z,8.93
2023-05-02T23:35:07.756Z,8.86
2023-05-02T23:37:35.023Z,8.83
2023-05-02T23:40:02.774Z,8.76
2023-05-02T23:42:30.254Z,8.73
2023-05-02T23:44:57.775Z,8.73
2023-05-02T23:47:28.042Z,8.69
2023-05-02T23:49:55.142Z,8.69
2023-05-02T23:52:22.194Z,8.70
2023-05-02T23:54:49.261Z,8.66
2023-05-02T23:57:16.321Z,8.64
2023-05-02T23:59:43.514Z,8.62
